sensor_id;sensor_type;location;lat;lon;timestamp;P1;durP1;ratioP1;P2;durP2;ratioP2
19329;SDS011;9799;48.214;16.388;2023-02-28T00:03:21;15.30;;;9.33;;
19329;SDS011;9799;48.214;16.388;2023-02-28T00:06:42;11.87;;;8.63;;
19329;SDS011;9799;48.214;16.388;2023-02-28T00:10:04;16.27;;;10.47;;
19329;SDS011;9799;48.214;16.388;2023-02-28T00:13:26;15.47;;;10.20;;
19329;SDS011;9799;48.214;16.388;2023-02-28T00:16:47;16.07;;;10.27;;
19329;SDS011;9799;48.214;16.388;2023-02-28T00:20:11;14.37;;;9.70;;
19329;SDS011;9799;48.214;16.388;2023-02-28T00:23:33;16.53;;;10.33;;
19329;SDS011;9799;48.214;16.388;2023-02-28T00:26:55;14.37;;;9.70;;
19329;SDS011;9799;48.214;16.388;2023-02-28T00:33:38;15.30;;;10.13;;
19329;SDS011;9799;48.214;16.388;2023-02-28T00:37:00;16.80;;;10.27;;
19329;SDS011;9799;48.214;16.388;2023-02-28T00:40:22;15.70;;;10.43;;
19329;SDS011;9799;48.214;16.388;2023-02-28T00:43:43;12.50;;;9.20;;
19329;SDS011;9799;48.214;16.388;2023-02-28T00:47:04;21.67;;;11.03;;
19329;SDS011;9799;48.214;16.388;2023-02-28T00:50:25;19.33;;;10.00;;
19329;SDS011;9799;48.214;16.388;2023-02-28T00:53:48;17.97;;;9.53;;
19329;SDS011;9799;48.214;16.388;2023-02-28T00:57:09;15.60;;;10.10;;
19329;SDS011;9799;48.214;16.388;2023-02-28T01:00:30;19.73;;;10.80;;
19329;SDS011;9799;48.214;16.388;2023-02-28T01:03:51;19.00;;;11.20;;
19329;SDS011;9799;48.214;16.388;2023-02-28T01:07:16;15.70;;;10.63;;
19329;SDS011;9799;48.214;16.388;2023-02-28T01:10:38;15.07;;;11.07;;
19329;SDS011;9799;48.214;16.388;2023-02-28T01:14:00;15.17;;;10.97;;
19329;SDS011;9799;48.214;16.388;2023-02-28T01:17:21;14.53;;;9.93;;
19329;SDS011;9799;48.214;16.388;2023-02-28T01:20:42;15.30;;;10.63;;
19329;SDS011;9799;48.214;16.388;2023-02-28T01:24:05;16.97;;;10.53;;
19329;SDS011;9799;48.214;16.388;2023-02-28T01:27:28;15.07;;;10.27;;
19329;SDS011;9799;48.214;16.388;2023-02-28T01:30:49;17.23;;;10.73;;
19329;SDS011;9799;48.214;16.388;2023-02-28T01:34:11;13.83;;;10.70;;
19329;SDS011;9799;48.214;16.388;2023-02-28T01:37:32;18.70;;;11.90;;
19329;SDS011;9799;48.214;16.388;2023-02-28T01:40:53;11.97;;;9.63;;
19329;SDS011;9799;48.214;16.388;2023-02-28T01:48:14;16.73;;;11.00;;
19329;SDS011;9799;48.214;16.388;2023-02-28T01:51:38;19.23;;;11.50;;
19329;SDS011;9799;48.214;16.388;2023-02-28T01:55:05;15.17;;;10.53;;
19329;SDS011;9799;48.214;16.388;2023-02-28T01:58:28;14.63;;;10.97;;
19329;SDS011;9799;48.214;16.388;2023-02-28T02:01:50;20.63;;;11.97;;
19329;SDS011;9799;48.214;16.388;2023-02-28T02:05:14;15.70;;;10.23;;
19329;SDS011;9799;48.214;16.388;2023-02-28T02:08:37;18.40;;;11.23;;
19329;SDS011;9799;48.214;16.388;2023-02-28T02:11:58;12.70;;;10.00;;
19329;SDS011;9799;48.214;16.388;2023-02-28T02:15:26;14.67;;;10.10;;
19329;SDS011;9799;48.214;16.388;2023-02-28T02:18:56;23.13;;;13.33;;
19329;SDS011;9799;48.214;16.388;2023-02-28T02:22:29;21.07;;;11.73;;
19329;SDS011;9799;48.214;16.388;2023-02-28T02:26:25;18.07;;;11.53;;
19329;SDS011;9799;48.214;16.388;2023-02-28T02:30:18;17.10;;;10.63;;
19329;SDS011;9799;48.214;16.388;2023-02-28T02:34:18;16.40;;;10.37;;
19329;SDS011;9799;48.214;16.388;2023-02-28T02:37:58;15.03;;;10.73;;
19329;SDS011;9799;48.214;16.388;2023-02-28T02:41:28;17.37;;;11.37;;
19329;SDS011;9799;48.214;16.388;2023-02-28T02:44:56;18.10;;;11.13;;
19329;SDS011;9799;48.214;16.388;2023-02-28T02:48:21;19.03;;;11.33;;
19329;SDS011;9799;48.214;16.388;2023-02-28T02:51:49;16.57;;;11.30;;
19329;SDS011;9799;48.214;16.388;2023-02-28T02:55:13;17.33;;;10.77;;
19329;SDS011;9799;48.214;16.388;2023-02-28T02:58:39;19.37;;;11.80;;
19329;SDS011;9799;48.214;16.388;2023-02-28T03:02:02;18.90;;;12.20;;
19329;SDS011;9799;48.214;16.388;2023-02-28T03:05:28;17.30;;;11.53;;
19329;SDS011;9799;48.214;16.388;2023-02-28T03:08:55;17.83;;;11.17;;
19329;SDS011;9799;48.214;16.388;2023-02-28T03:12:17;15.90;;;11.13;;
19329;SDS011;9799;48.214;16.388;2023-02-28T03:15:40;17.50;;;11.63;;
19329;SDS011;9799;48.214;16.388;2023-02-28T03:23:10;16.73;;;11.40;;
19329;SDS011;9799;48.214;16.388;2023-02-28T03:26:39;18.67;;;10.87;;
19329;SDS011;9799;48.214;16.388;2023-02-28T03:30:06;14.90;;;10.43;;
19329;SDS011;9799;48.214;16.388;2023-02-28T03:33:32;18.70;;;11.43;;
19329;SDS011;9799;48.214;16.388;2023-02-28T03:37:00;15.40;;;10.73;;
19329;SDS011;9799;48.214;16.388;2023-02-28T03:40:25;18.50;;;10.77;;
19329;SDS011;9799;48.214;16.388;2023-02-28T03:43:53;17.47;;;11.83;;
19329;SDS011;9799;48.214;16.388;2023-02-28T03:47:17;16.97;;;11.47;;
19329;SDS011;9799;48.214;16.388;2023-02-28T03:50:43;24.30;;;11.30;;
19329;SDS011;9799;48.214;16.388;2023-02-28T03:54:08;15.37;;;10.83;;
19329;SDS011;9799;48.214;16.388;2023-02-28T03:57:37;19.17;;;11.43;;
19329;SDS011;9799;48.214;16.388;2023-02-28T04:01:07;15.43;;;10.93;;
19329;SDS011;9799;48.214;16.388;2023-02-28T04:04:30;15.00;;;10.17;;
19329;SDS011;9799;48.214;16.388;2023-02-28T04:07:51;18.10;;;11.17;;
19329;SDS011;9799;48.214;16.388;2023-02-28T04:11:16;18.47;;;11.43;;
19329;SDS011;9799;48.214;16.388;2023-02-28T04:14:41;15.20;;;10.77;;
19329;SDS011;9799;48.214;16.388;2023-02-28T04:18:04;15.47;;;11.10;;
19329;SDS011;9799;48.214;16.388;2023-02-28T04:21:26;17.97;;;11.33;;
19329;SDS011;9799;48.214;16.388;2023-02-28T04:24:47;19.47;;;11.90;;
19329;SDS011;9799;48.214;16.388;2023-02-28T04:28:08;18.53;;;12.50;;
19329;SDS011;9799;48.214;16.388;2023-02-28T04:31:30;16.60;;;11.27;;
19329;SDS011;9799;48.214;16.388;2023-02-28T04:34:53;21.50;;;11.97;;
19329;SDS011;9799;48.214;16.388;2023-02-28T04:38:14;16.90;;;10.83;;
19329;SDS011;9799;48.214;16.388;2023-02-28T04:41:35;17.27;;;11.60;;
19329;SDS011;9799;48.214;16.388;2023-02-28T04:44:56;22.23;;;11.43;;
19329;SDS011;9799;48.214;16.388;2023-02-28T04:48:18;17.13;;;10.80;;
19329;SDS011;9799;48.214;16.388;2023-02-28T04:51:40;21.10;;;11.80;;
19329;SDS011;9799;48.214;16.388;2023-02-28T04:55:02;19.67;;;12.17;;
19329;SDS011;9799;48.214;16.388;2023-02-28T04:58:24;16.13;;;11.70;;
19329;SDS011;9799;48.214;16.388;2023-02-28T05:01:46;18.77;;;11.30;;
19329;SDS011;9799;48.214;16.388;2023-02-28T05:05:08;19.30;;;11.80;;
19329;SDS011;9799;48.214;16.388;2023-02-28T05:08:31;20.60;;;11.70;;
19329;SDS011;9799;48.214;16.388;2023-02-28T05:11:52;19.87;;;12.57;;
19329;SDS011;9799;48.214;16.388;2023-02-28T05:15:13;16.63;;;11.87;;
19329;SDS011;9799;48.214;16.388;2023-02-28T05:18:36;17.03;;;10.70;;
19329;SDS011;9799;48.214;16.388;2023-02-28T05:21:57;17.73;;;11.87;;
19329;SDS011;9799;48.214;16.388;2023-02-28T05:25:20;19.87;;;12.03;;
19329;SDS011;9799;48.214;16.388;2023-02-28T05:28:42;18.17;;;12.47;;
19329;SDS011;9799;48.214;16.388;2023-02-28T05:32:03;19.17;;;12.33;;
19329;SDS011;9799;48.214;16.388;2023-02-28T05:35:24;15.87;;;12.07;;
19329;SDS011;9799;48.214;16.388;2023-02-28T05:38:47;19.90;;;12.07;;
19329;SDS011;9799;48.214;16.388;2023-02-28T05:42:09;18.27;;;12.43;;
19329;SDS011;9799;48.214;16.388;2023-02-28T05:45:31;24.73;;;13.10;;
19329;SDS011;9799;48.214;16.388;2023-02-28T05:48:52;20.23;;;13.13;;
19329;SDS011;9799;48.214;16.388;2023-02-28T05:52:15;17.60;;;11.23;;
19329;SDS011;9799;48.214;16.388;2023-02-28T05:55:36;19.23;;;12.90;;
19329;SDS011;9799;48.214;16.388;2023-02-28T05:58:58;17.17;;;12.33;;
19329;SDS011;9799;48.214;16.388;2023-02-28T06:02:20;19.17;;;12.70;;
19329;SDS011;9799;48.214;16.388;2023-02-28T06:05:41;17.10;;;11.63;;
19329;SDS011;9799;48.214;16.388;2023-02-28T06:09:02;17.40;;;11.67;;
19329;SDS011;9799;48.214;16.388;2023-02-28T06:12:24;19.43;;;13.03;;
19329;SDS011;9799;48.214;16.388;2023-02-28T06:15:46;16.47;;;12.20;;
19329;SDS011;9799;48.214;16.388;2023-02-28T06:19:08;20.23;;;12.10;;
19329;SDS011;9799;48.214;16.388;2023-02-28T06:22:30;22.57;;;13.07;;
19329;SDS011;9799;48.214;16.388;2023-02-28T06:25:51;17.53;;;12.33;;
19329;SDS011;9799;48.214;16.388;2023-02-28T06:29:17;21.20;;;13.70;;
19329;SDS011;9799;48.214;16.388;2023-02-28T06:32:39;23.03;;;13.10;;
19329;SDS011;9799;48.214;16.388;2023-02-28T06:36:00;17.70;;;12.37;;
19329;SDS011;9799;48.214;16.388;2023-02-28T06:39:21;18.40;;;12.87;;
19329;SDS011;9799;48.214;16.388;2023-02-28T06:42:43;21.23;;;13.13;;
19329;SDS011;9799;48.214;16.388;2023-02-28T06:46:05;23.43;;;12.83;;
19329;SDS011;9799;48.214;16.388;2023-02-28T06:49:29;21.73;;;14.57;;
19329;SDS011;9799;48.214;16.388;2023-02-28T06:52:51;18.93;;;13.53;;
19329;SDS011;9799;48.214;16.388;2023-02-28T06:56:13;20.87;;;13.63;;
19329;SDS011;9799;48.214;16.388;2023-02-28T06:59:36;19.10;;;12.47;;
19329;SDS011;9799;48.214;16.388;2023-02-28T07:02:57;19.57;;;13.77;;
19329;SDS011;9799;48.214;16.388;2023-02-28T07:06:19;18.83;;;13.57;;
19329;SDS011;9799;48.214;16.388;2023-02-28T07:09:42;21.30;;;13.97;;
19329;SDS011;9799;48.214;16.388;2023-02-28T07:13:04;22.63;;;13.10;;
19329;SDS011;9799;48.214;16.388;2023-02-28T07:16:25;20.90;;;14.33;;
19329;SDS011;9799;48.214;16.388;2023-02-28T07:19:46;20.50;;;13.70;;
19329;SDS011;9799;48.214;16.388;2023-02-28T07:23:09;24.37;;;14.43;;
19329;SDS011;9799;48.214;16.388;2023-02-28T07:26:30;23.23;;;14.50;;
19329;SDS011;9799;48.214;16.388;2023-02-28T07:29:53;19.67;;;13.33;;
19329;SDS011;9799;48.214;16.388;2023-02-28T07:33:15;22.37;;;14.83;;
19329;SDS011;9799;48.214;16.388;2023-02-28T07:36:36;22.87;;;14.37;;
19329;SDS011;9799;48.214;16.388;2023-02-28T07:39:59;24.57;;;16.93;;
19329;SDS011;9799;48.214;16.388;2023-02-28T07:43:20;26.83;;;17.43;;
19329;SDS011;9799;48.214;16.388;2023-02-28T07:46:41;25.73;;;15.87;;
19329;SDS011;9799;48.214;16.388;2023-02-28T07:50:03;22.03;;;14.57;;
19329;SDS011;9799;48.214;16.388;2023-02-28T07:53:24;38.17;;;23.37;;
19329;SDS011;9799;48.214;16.388;2023-02-28T07:56:47;24.47;;;16.50;;
19329;SDS011;9799;48.214;16.388;2023-02-28T08:00:10;19.10;;;14.90;;
19329;SDS011;9799;48.214;16.388;2023-02-28T08:03:33;22.23;;;14.80;;
19329;SDS011;9799;48.214;16.388;2023-02-28T08:06:54;27.17;;;15.87;;
19329;SDS011;9799;48.214;16.388;2023-02-28T08:10:15;23.73;;;15.17;;
19329;SDS011;9799;48.214;16.388;2023-02-28T08:13:38;24.33;;;16.43;;
19329;SDS011;9799;48.214;16.388;2023-02-28T08:17:01;20.70;;;14.43;;
19329;SDS011;9799;48.214;16.388;2023-02-28T08:20:22;25.17;;;14.93;;
19329;SDS011;9799;48.214;16.388;2023-02-28T08:23:45;19.60;;;14.97;;
19329;SDS011;9799;48.214;16.388;2023-02-28T08:27:07;23.30;;;15.27;;
19329;SDS011;9799;48.214;16.388;2023-02-28T08:30:29;26.47;;;16.07;;
19329;SDS011;9799;48.214;16.388;2023-02-28T08:33:50;27.00;;;15.93;;
19329;SDS011;9799;48.214;16.388;2023-02-28T08:37:12;23.33;;;15.57;;
19329;SDS011;9799;48.214;16.388;2023-02-28T08:40:33;24.47;;;16.60;;
19329;SDS011;9799;48.214;16.388;2023-02-28T08:43:54;22.77;;;16.50;;
19329;SDS011;9799;48.214;16.388;2023-02-28T08:47:17;26.47;;;16.57;;
19329;SDS011;9799;48.214;16.388;2023-02-28T08:50:39;54.87;;;28.30;;
19329;SDS011;9799;48.214;16.388;2023-02-28T08:54:00;74.23;;;34.87;;
19329;SDS011;9799;48.214;16.388;2023-02-28T08:57:21;36.90;;;22.00;;
19329;SDS011;9799;48.214;16.388;2023-02-28T09:00:45;30.27;;;17.90;;
19329;SDS011;9799;48.214;16.388;2023-02-28T09:04:08;24.67;;;16.60;;
19329;SDS011;9799;48.214;16.388;2023-02-28T09:07:30;25.93;;;16.83;;
19329;SDS011;9799;48.214;16.388;2023-02-28T09:10:51;26.20;;;17.03;;
19329;SDS011;9799;48.214;16.388;2023-02-28T09:14:12;22.43;;;15.63;;
19329;SDS011;9799;48.214;16.388;2023-02-28T09:17:33;28.60;;;17.47;;
19329;SDS011;9799;48.214;16.388;2023-02-28T09:20:56;24.40;;;17.30;;
19329;SDS011;9799;48.214;16.388;2023-02-28T09:24:18;21.57;;;15.57;;
19329;SDS011;9799;48.214;16.388;2023-02-28T09:27:39;18.67;;;13.23;;
19329;SDS011;9799;48.214;16.388;2023-02-28T09:31:01;25.87;;;14.77;;
19329;SDS011;9799;48.214;16.388;2023-02-28T09:34:23;19.87;;;14.20;;
19329;SDS011;9799;48.214;16.388;2023-02-28T09:37:47;18.03;;;13.07;;
19329;SDS011;9799;48.214;16.388;2023-02-28T09:41:12;20.33;;;14.37;;
19329;SDS011;9799;48.214;16.388;2023-02-28T09:44:36;20.93;;;12.87;;
19329;SDS011;9799;48.214;16.388;2023-02-28T09:48:01;17.00;;;12.53;;
19329;SDS011;9799;48.214;16.388;2023-02-28T09:51:39;21.40;;;15.13;;
19329;SDS011;9799;48.214;16.388;2023-02-28T09:55:16;19.83;;;14.20;;
19329;SDS011;9799;48.214;16.388;2023-02-28T09:58:44;19.60;;;13.60;;
19329;SDS011;9799;48.214;16.388;2023-02-28T10:02:21;25.80;;;15.97;;
19329;SDS011;9799;48.214;16.388;2023-02-28T10:05:59;25.77;;;16.33;;
19329;SDS011;9799;48.214;16.388;2023-02-28T10:09:27;23.40;;;16.07;;
19329;SDS011;9799;48.214;16.388;2023-02-28T10:12:54;29.33;;;19.30;;
19329;SDS011;9799;48.214;16.388;2023-02-28T10:16:20;26.40;;;17.60;;
19329;SDS011;9799;48.214;16.388;2023-02-28T10:19:47;31.53;;;17.10;;
19329;SDS011;9799;48.214;16.388;2023-02-28T10:23:17;22.33;;;15.73;;
19329;SDS011;9799;48.214;16.388;2023-02-28T10:26:41;25.10;;;17.13;;
19329;SDS011;9799;48.214;16.388;2023-02-28T10:30:09;41.17;;;26.30;;
19329;SDS011;9799;48.214;16.388;2023-02-28T10:33:33;23.93;;;17.17;;
19329;SDS011;9799;48.214;16.388;2023-02-28T10:36:55;24.63;;;15.40;;
19329;SDS011;9799;48.214;16.388;2023-02-28T10:40:28;25.17;;;16.50;;
19329;SDS011;9799;48.214;16.388;2023-02-28T10:43:51;21.57;;;15.17;;
19329;SDS011;9799;48.214;16.388;2023-02-28T10:47:15;22.40;;;15.53;;
19329;SDS011;9799;48.214;16.388;2023-02-28T10:50:42;23.60;;;15.17;;
19329;SDS011;9799;48.214;16.388;2023-02-28T10:54:04;24.53;;;16.30;;
19329;SDS011;9799;48.214;16.388;2023-02-28T10:57:34;19.90;;;14.73;;
19329;SDS011;9799;48.214;16.388;2023-02-28T11:00:56;21.97;;;15.60;;
19329;SDS011;9799;48.214;16.388;2023-02-28T11:04:32;22.10;;;14.43;;
19329;SDS011;9799;48.214;16.388;2023-02-28T11:07:59;25.73;;;16.03;;
19329;SDS011;9799;48.214;16.388;2023-02-28T11:11:26;20.67;;;13.67;;
19329;SDS011;9799;48.214;16.388;2023-02-28T11:14:51;20.77;;;14.90;;
19329;SDS011;9799;48.214;16.388;2023-02-28T11:18:19;23.43;;;15.50;;
19329;SDS011;9799;48.214;16.388;2023-02-28T11:21:47;20.70;;;15.23;;
19329;SDS011;9799;48.214;16.388;2023-02-28T11:25:16;23.00;;;15.90;;
19329;SDS011;9799;48.214;16.388;2023-02-28T11:28:42;24.57;;;15.40;;
19329;SDS011;9799;48.214;16.388;2023-02-28T11:32:05;20.17;;;14.27;;
19329;SDS011;9799;48.214;16.388;2023-02-28T11:35:38;20.87;;;15.07;;
19329;SDS011;9799;48.214;16.388;2023-02-28T11:39:04;22.67;;;15.30;;
19329;SDS011;9799;48.214;16.388;2023-02-28T11:42:35;21.67;;;13.23;;
19329;SDS011;9799;48.214;16.388;2023-02-28T11:46:06;22.37;;;14.17;;
19329;SDS011;9799;48.214;16.388;2023-02-28T11:49:41;21.73;;;15.97;;
19329;SDS011;9799;48.214;16.388;2023-02-28T11:53:14;17.17;;;14.00;;
19329;SDS011;9799;48.214;16.388;2023-02-28T11:56:44;22.40;;;14.60;;
19329;SDS011;9799;48.214;16.388;2023-02-28T12:00:10;23.00;;;14.37;;
19329;SDS011;9799;48.214;16.388;2023-02-28T12:03:43;20.87;;;14.53;;
19329;SDS011;9799;48.214;16.388;2023-02-28T12:07:09;22.43;;;13.83;;
19329;SDS011;9799;48.214;16.388;2023-02-28T12:10:42;23.47;;;15.30;;
19329;SDS011;9799;48.214;16.388;2023-02-28T12:14:22;25.97;;;15.07;;
19329;SDS011;9799;48.214;16.388;2023-02-28T12:17:59;20.93;;;14.50;;
19329;SDS011;9799;48.214;16.388;2023-02-28T12:21:46;21.23;;;14.27;;
19329;SDS011;9799;48.214;16.388;2023-02-28T12:29:16;20.93;;;15.47;;
19329;SDS011;9799;48.214;16.388;2023-02-28T12:32:45;17.67;;;13.20;;
19329;SDS011;9799;48.214;16.388;2023-02-28T12:36:09;19.93;;;13.83;;
19329;SDS011;9799;48.214;16.388;2023-02-28T12:39:37;17.80;;;12.20;;
19329;SDS011;9799;48.214;16.388;2023-02-28T12:43:03;23.13;;;12.47;;
19329;SDS011;9799;48.214;16.388;2023-02-28T12:46:29;19.00;;;13.27;;
19329;SDS011;9799;48.214;16.388;2023-02-28T12:49:58;15.70;;;12.30;;
19329;SDS011;9799;48.214;16.388;2023-02-28T12:53:23;14.43;;;12.07;;
19329;SDS011;9799;48.214;16.388;2023-02-28T12:56:53;18.33;;;11.37;;
19329;SDS011;9799;48.214;16.388;2023-02-28T13:00:24;14.63;;;11.73;;
19329;SDS011;9799;48.214;16.388;2023-02-28T13:07:58;14.00;;;11.57;;
19329;SDS011;9799;48.214;16.388;2023-02-28T13:11:41;16.77;;;11.73;;
19329;SDS011;9799;48.214;16.388;2023-02-28T13:15:07;18.17;;;12.10;;
19329;SDS011;9799;48.214;16.388;2023-02-28T13:18:35;15.67;;;11.23;;
19329;SDS011;9799;48.214;16.388;2023-02-28T13:21:59;16.00;;;11.20;;
19329;SDS011;9799;48.214;16.388;2023-02-28T13:29:25;16.10;;;10.53;;
19329;SDS011;9799;48.214;16.388;2023-02-28T13:33:00;12.20;;;9.80;;
19329;SDS011;9799;48.214;16.388;2023-02-28T13:36:43;14.77;;;10.13;;
19329;SDS011;9799;48.214;16.388;2023-02-28T13:43:58;15.47;;;11.10;;
19329;SDS011;9799;48.214;16.388;2023-02-28T13:47:28;15.00;;;10.90;;
19329;SDS011;9799;48.214;16.388;2023-02-28T13:50:51;18.03;;;11.37;;
19329;SDS011;9799;48.214;16.388;2023-02-28T13:54:24;14.63;;;10.67;;
19329;SDS011;9799;48.214;16.388;2023-02-28T13:58:06;12.93;;;10.43;;
19329;SDS011;9799;48.214;16.388;2023-02-28T14:01:48;16.90;;;11.77;;
19329;SDS011;9799;48.214;16.388;2023-02-28T14:05:19;14.03;;;10.70;;
19329;SDS011;9799;48.214;16.388;2023-02-28T14:08:46;15.13;;;11.20;;
19329;SDS011;9799;48.214;16.388;2023-02-28T14:16:13;15.60;;;12.37;;
19329;SDS011;9799;48.214;16.388;2023-02-28T14:19:37;17.13;;;12.30;;
19329;SDS011;9799;48.214;16.388;2023-02-28T14:23:04;18.77;;;12.87;;
19329;SDS011;9799;48.214;16.388;2023-02-28T14:26:47;17.70;;;12.80;;
19329;SDS011;9799;48.214;16.388;2023-02-28T14:30:29;15.37;;;12.67;;
19329;SDS011;9799;48.214;16.388;2023-02-28T14:34:05;16.73;;;12.70;;
19329;SDS011;9799;48.214;16.388;2023-02-28T14:37:41;17.00;;;12.33;;
19329;SDS011;9799;48.214;16.388;2023-02-28T14:41:06;19.47;;;12.20;;
19329;SDS011;9799;48.214;16.388;2023-02-28T14:44:36;17.77;;;12.33;;
19329;SDS011;9799;48.214;16.388;2023-02-28T14:47:58;16.47;;;12.73;;
19329;SDS011;9799;48.214;16.388;2023-02-28T14:51:21;19.50;;;12.57;;
19329;SDS011;9799;48.214;16.388;2023-02-28T14:54:44;21.23;;;14.93;;
19329;SDS011;9799;48.214;16.388;2023-02-28T14:58:17;16.57;;;12.40;;
19329;SDS011;9799;48.214;16.388;2023-02-28T15:01:43;19.40;;;14.40;;
19329;SDS011;9799;48.214;16.388;2023-02-28T15:05:10;21.87;;;16.53;;
19329;SDS011;9799;48.214;16.388;2023-02-28T15:08:42;24.90;;;15.40;;
19329;SDS011;9799;48.214;16.388;2023-02-28T15:12:03;20.80;;;14.47;;
19329;SDS011;9799;48.214;16.388;2023-02-28T15:15:27;16.27;;;13.37;;
19329;SDS011;9799;48.214;16.388;2023-02-28T15:19:00;19.20;;;13.83;;
19329;SDS011;9799;48.214;16.388;2023-02-28T15:22:26;17.37;;;13.63;;
19329;SDS011;9799;48.214;16.388;2023-02-28T15:25:51;18.37;;;12.50;;
19329;SDS011;9799;48.214;16.388;2023-02-28T15:29:15;19.30;;;15.23;;
19329;SDS011;9799;48.214;16.388;2023-02-28T15:32:42;20.50;;;15.07;;
19329;SDS011;9799;48.214;16.388;2023-02-28T15:36:09;16.87;;;13.27;;
19329;SDS011;9799;48.214;16.388;2023-02-28T15:39:34;22.37;;;14.57;;
19329;SDS011;9799;48.214;16.388;2023-02-28T15:43:05;15.87;;;13.10;;
19329;SDS011;9799;48.214;16.388;2023-02-28T15:46:28;17.90;;;11.97;;
19329;SDS011;9799;48.214;16.388;2023-02-28T15:49:51;18.37;;;13.47;;
19329;SDS011;9799;48.214;16.388;2023-02-28T15:53:15;18.40;;;13.20;;
19329;SDS011;9799;48.214;16.388;2023-02-28T15:56:42;18.30;;;12.93;;
19329;SDS011;9799;48.214;16.388;2023-02-28T16:00:08;21.40;;;14.20;;
19329;SDS011;9799;48.214;16.388;2023-02-28T16:03:37;18.30;;;13.83;;
19329;SDS011;9799;48.214;16.388;2023-02-28T16:07:02;18.43;;;12.83;;
19329;SDS011;9799;48.214;16.388;2023-02-28T16:10:26;19.13;;;14.63;;
19329;SDS011;9799;48.214;16.388;2023-02-28T16:13:49;20.87;;;14.10;;
19329;SDS011;9799;48.214;16.388;2023-02-28T16:17:14;16.50;;;13.17;;
19329;SDS011;9799;48.214;16.388;2023-02-28T16:20:40;17.27;;;13.83;;
19329;SDS011;9799;48.214;16.388;2023-02-28T16:24:05;20.67;;;15.57;;
19329;SDS011;9799;48.214;16.388;2023-02-28T16:27:28;17.73;;;14.17;;
19329;SDS011;9799;48.214;16.388;2023-02-28T16:30:52;17.03;;;13.90;;
19329;SDS011;9799;48.214;16.388;2023-02-28T16:34:14;18.07;;;14.63;;
19329;SDS011;9799;48.214;16.388;2023-02-28T16:37:36;18.60;;;14.40;;
19329;SDS011;9799;48.214;16.388;2023-02-28T16:40:59;18.57;;;14.20;;
19329;SDS011;9799;48.214;16.388;2023-02-28T16:44:24;19.83;;;14.07;;
19329;SDS011;9799;48.214;16.388;2023-02-28T16:47:49;18.53;;;14.50;;
19329;SDS011;9799;48.214;16.388;2023-02-28T16:51:11;19.30;;;15.77;;
19329;SDS011;9799;48.214;16.388;2023-02-28T16:54:33;19.70;;;15.13;;
19329;SDS011;9799;48.214;16.388;2023-02-28T16:57:57;21.50;;;15.03;;
19329;SDS011;9799;48.214;16.388;2023-02-28T17:01:20;21.30;;;15.63;;
19329;SDS011;9799;48.214;16.388;2023-02-28T17:04:41;20.17;;;14.53;;
19329;SDS011;9799;48.214;16.388;2023-02-28T17:08:03;26.73;;;16.13;;
19329;SDS011;9799;48.214;16.388;2023-02-28T17:11:25;21.67;;;14.97;;
19329;SDS011;9799;48.214;16.388;2023-02-28T17:14:47;19.97;;;15.60;;
19329;SDS011;9799;48.214;16.388;2023-02-28T17:18:12;24.10;;;16.37;;
19329;SDS011;9799;48.214;16.388;2023-02-28T17:21:38;20.63;;;15.27;;
19329;SDS011;9799;48.214;16.388;2023-02-28T17:25:01;25.33;;;16.13;;
19329;SDS011;9799;48.214;16.388;2023-02-28T17:28:23;19.63;;;14.73;;
19329;SDS011;9799;48.214;16.388;2023-02-28T17:31:47;23.63;;;16.20;;
19329;SDS011;9799;48.214;16.388;2023-02-28T17:35:09;21.93;;;16.33;;
19329;SDS011;9799;48.214;16.388;2023-02-28T17:38:31;22.53;;;16.33;;
19329;SDS011;9799;48.214;16.388;2023-02-28T17:41:54;22.83;;;16.50;;
19329;SDS011;9799;48.214;16.388;2023-02-28T17:45:17;24.90;;;16.60;;
19329;SDS011;9799;48.214;16.388;2023-02-28T17:48:41;24.83;;;16.13;;
19329;SDS011;9799;48.214;16.388;2023-02-28T17:52:03;21.93;;;15.90;;
19329;SDS011;9799;48.214;16.388;2023-02-28T17:55:25;26.60;;;17.63;;
19329;SDS011;9799;48.214;16.388;2023-02-28T17:58:50;27.60;;;17.70;;
19329;SDS011;9799;48.214;16.388;2023-02-28T18:02:13;26.70;;;17.47;;
19329;SDS011;9799;48.214;16.388;2023-02-28T18:05:38;18.90;;;14.33;;
19329;SDS011;9799;48.214;16.388;2023-02-28T18:09:01;21.33;;;13.60;;
19329;SDS011;9799;48.214;16.388;2023-02-28T18:12:23;22.15;;;17.20;;
19329;SDS011;9799;48.214;16.388;2023-02-28T18:15:45;15.67;;;12.50;;
19329;SDS011;9799;48.214;16.388;2023-02-28T18:19:07;19.43;;;13.30;;
19329;SDS011;9799;48.214;16.388;2023-02-28T18:22:35;18.73;;;12.40;;
19329;SDS011;9799;48.214;16.388;2023-02-28T18:25:56;18.50;;;12.53;;
19329;SDS011;9799;48.214;16.388;2023-02-28T18:29:19;21.03;;;12.77;;
19329;SDS011;9799;48.214;16.388;2023-02-28T18:32:43;19.27;;;13.20;;
19329;SDS011;9799;48.214;16.388;2023-02-28T18:36:05;26.17;;;12.53;;
19329;SDS011;9799;48.214;16.388;2023-02-28T18:39:28;18.70;;;12.43;;
19329;SDS011;9799;48.214;16.388;2023-02-28T18:42:51;24.63;;;13.67;;
19329;SDS011;9799;48.214;16.388;2023-02-28T18:46:14;16.93;;;12.97;;
19329;SDS011;9799;48.214;16.388;2023-02-28T18:49:38;17.67;;;12.17;;
19329;SDS011;9799;48.214;16.388;2023-02-28T18:53:00;19.47;;;13.47;;
19329;SDS011;9799;48.214;16.388;2023-02-28T18:56:24;21.23;;;13.70;;
19329;SDS011;9799;48.214;16.388;2023-02-28T18:59:47;19.17;;;13.77;;
19329;SDS011;9799;48.214;16.388;2023-02-28T19:03:09;20.67;;;13.90;;
19329;SDS011;9799;48.214;16.388;2023-02-28T19:06:33;23.50;;;15.10;;
19329;SDS011;9799;48.214;16.388;2023-02-28T19:09:56;15.90;;;12.63;;
19329;SDS011;9799;48.214;16.388;2023-02-28T19:13:20;23.07;;;14.80;;
19329;SDS011;9799;48.214;16.388;2023-02-28T19:16:43;23.70;;;14.23;;
19329;SDS011;9799;48.214;16.388;2023-02-28T19:20:06;19.23;;;13.60;;
19329;SDS011;9799;48.214;16.388;2023-02-28T19:23:30;24.97;;;14.23;;
19329;SDS011;9799;48.214;16.388;2023-02-28T19:26:53;22.77;;;14.23;;
19329;SDS011;9799;48.214;16.388;2023-02-28T19:30:16;20.77;;;14.20;;
19329;SDS011;9799;48.214;16.388;2023-02-28T19:33:38;23.13;;;15.23;;
19329;SDS011;9799;48.214;16.388;2023-02-28T19:37:00;25.03;;;16.03;;
19329;SDS011;9799;48.214;16.388;2023-02-28T19:40:23;23.73;;;14.70;;
19329;SDS011;9799;48.214;16.388;2023-02-28T19:43:44;20.70;;;15.73;;
19329;SDS011;9799;48.214;16.388;2023-02-28T19:47:08;21.93;;;15.57;;
19329;SDS011;9799;48.214;16.388;2023-02-28T19:50:30;24.20;;;15.53;;
19329;SDS011;9799;48.214;16.388;2023-02-28T19:53:52;27.13;;;15.50;;
19329;SDS011;9799;48.214;16.388;2023-02-28T19:57:15;25.50;;;16.40;;
19329;SDS011;9799;48.214;16.388;2023-02-28T20:00:39;24.47;;;16.23;;
19329;SDS011;9799;48.214;16.388;2023-02-28T20:04:03;23.90;;;16.53;;
19329;SDS011;9799;48.214;16.388;2023-02-28T20:07:28;24.77;;;17.60;;
19329;SDS011;9799;48.214;16.388;2023-02-28T20:10:51;25.43;;;17.40;;
19329;SDS011;9799;48.214;16.388;2023-02-28T20:14:14;24.33;;;16.43;;
19329;SDS011;9799;48.214;16.388;2023-02-28T20:17:37;24.93;;;16.97;;
19329;SDS011;9799;48.214;16.388;2023-02-28T20:21:02;25.73;;;18.13;;
19329;SDS011;9799;48.214;16.388;2023-02-28T20:24:24;29.03;;;17.73;;
19329;SDS011;9799;48.214;16.388;2023-02-28T20:27:47;24.17;;;15.93;;
19329;SDS011;9799;48.214;16.388;2023-02-28T20:31:10;26.33;;;17.73;;